ěÝzenÝ letovÚho provozu ╚eskÚ republiky
Letiste: LKPD Aktualizace: 18.05.2022 00:57:30  UTC
 METAR LKPD 18.05. 01:00 ...
METAR LKPD 180100Z VRB02KT CAVOK 08/08 Q1024 RMK BLACK=